Belt, MT

8:39 PM MDT on July 31, 2014 (GMT -0600)
Lewistown Municipal (KLWT) Elev 4167 ft | 47.05 °N, 109.47 °W | Change Station

Current weather conditions updated 45 minutes ago

Scattered Clouds
Scattered Clouds
82 °F
Feels Like 82 °F
N
8
Wind Variable Wind from NNE

Tomorrow is forecast to be nearly the same temperature as today. Isolated thunderstorms tomorrow night.

Today
High -- | Low -- °F
--% Chance of Precip.
Yesterday
High -- | Low -- °F
Precip. -- in
6:00 AM 8:58 PM
Waxing Crescent, 22% visible
Pressure 29.98 in
Visibility 10.0 miles
Clouds Scattered Clouds 11000 ft
Dew Point 40 °F
Humidity 22%
Rainfall 0.00 in
Snow Depth Not available.
UV 0 out of 12
Pollen 6.90 out of 12
Air Quality Not available.
Flu Activity Not available.
METAR KLWT 010154Z AUTO 03007KT 10SM VCTS SCT110 28/04 A3010 RMK AO2 SLP152 T02780044

More Conditions Fewer Conditions

Pressure 29.98 in
Visibility 10.0 miles
Clouds Scattered Clouds 11000 ft
Dew Point 40 °F
Humidity 22%
Rainfall 0.00 in
Snow Depth Not available.
UV 0 out of 12
Pollen 6.90 out of 12
Air Quality Not available.
Flu Activity Not available.
METAR KLWT 010154Z AUTO 03007KT 10SM VCTS SCT110 28/04 A3010 RMK AO2 SLP152 T02780044

More Conditions Fewer Conditions

10-Day Weather Forecast

Almanac

Astronomy

Jul. 31, 2014 Rise Set
Actual Time 6:00 AM MDT 8:58 PM MDT
Civil Twilight 5:24 AM MDT 9:34 PM MDT
Nautical Twilight 4:38 AM MDT 10:20 PM MDT
Astronomical Twilight 3:42 AM MDT 11:15 PM MDT
Moon 10:53 AM MDT (7/31) 10:49 PM MDT (7/31)
Length of Visible Light 16h 09m
Length of Day
14h 57m
Tomorrow will be 2m 38s shorter.
Waxing Crescent, 22% of the Moon is Illuminated
Today
Waxing Crescent
Aug 3
First Quarter
Aug 10
Full
Aug 17
Last Quarter
Aug 25
New

Today's Extremes

State Highs State Lows

Community

WunderPhotos

Upload Photos

1,739,503 photos uploaded!

Nearby

Snow Depth

Station Depth Elevation
Crystal Lake 0 in 6050 ft
Tizer Basin 0 in 6840 ft
Porcupine 0 in 6500 ft
Wood Creek 0 in 5960 ft
Waldron 0 in 5600 ft

Earthquake Activity

City Distance Mag. Time & Date
Townsend, Montana 79 miles 3.0 10:32 AM MDT
2014-07-26
Minimum magnitude displayed is 2.5.

Coastal Water Temperatures

Place Temperature
No Stations Reporting

Nearby Weather Stations

Station Location Temp. Heat Index Dew Point Humidity Wind Precip. Elev Updated Type
Spicer's, Great Falls, MT 82.9 °F 81 °F 46 °F 27% SSW  at  1.0 mph 0.00 in / hr 3323 ft 8:39 PM MDT Rapid Fire
Countryside Village, Great Falls, MT 82.6 °F 82 °F 54 °F 37% West  at  3.1 mph 0.00 in / hr 3514 ft 8:39 PM MDT Rapid Fire
North Bench, Fort Benton, MT 85.5 °F 83 °F 42 °F 22% NNW  at  3.7 mph 0.00 in / hr 3271 ft 8:02 PM MDT Rapid Fire
MesoWest Monarch Canyon US-89 MP 53.5 , Monarch, MT 74 °F 77 °F 43 °F 33% WSW  at  6 mph 0.00 in / hr 5196 ft 7:35 PM MDT MADIS

Show More Stations Show Fewer Stations